Aviation Digital Data Service (ADDS)

Output produced by METARs form (2341 UTC 22 November 2014)
found at http://aviationweather.gov/adds/metars/
 
KBAF 222334Z 2300/2324 19007KT P6SM BKN050 WS020/25035KT 
     FM231100 VRB03KT P6SM BKN050 
     FM231800 20005KT P6SM SCT050 
     FM232000 19004KT P6SM BKN070